createdAt,value
2023-04-21T05:03:21.672Z,21.26
2023-04-21T05:04:21.845Z,21.55
2023-04-21T05:05:22.431Z,21.64
2023-04-21T05:06:21.438Z,21.66
2023-04-21T05:07:21.484Z,21.71
2023-04-21T05:08:22.520Z,21.72
2023-04-21T05:09:21.548Z,21.78
2023-04-21T05:10:21.556Z,21.80
2023-04-21T05:11:21.552Z,21.79
2023-04-21T05:12:22.593Z,21.80
2023-04-21T05:13:22.666Z,21.79
2023-04-21T05:14:22.737Z,21.80
2023-04-21T05:15:22.771Z,21.84
2023-04-21T05:16:21.862Z,21.88
2023-04-21T05:17:21.878Z,21.92
2023-04-21T05:18:22.910Z,21.94
2023-04-21T05:19:21.926Z,21.96
2023-04-21T05:20:22.972Z,21.98
2023-04-21T05:21:22.016Z,22.05
2023-04-21T05:22:23.043Z,21.98
2023-04-21T05:23:23.081Z,21.91
2023-04-21T05:24:23.144Z,21.79
2023-04-21T05:25:23.175Z,21.81
2023-04-21T05:26:23.241Z,21.74
2023-04-21T05:27:22.285Z,21.72
2023-04-21T05:28:23.306Z,21.74
2023-04-21T05:29:23.392Z,21.67
2023-04-21T05:30:23.387Z,21.65
2023-04-21T05:31:22.451Z,21.56
2023-04-21T05:32:22.923Z,21.51
2023-04-21T05:33:23.549Z,21.52
2023-04-21T05:34:23.573Z,21.56
2023-04-21T05:35:23.616Z,21.49
2023-04-21T05:36:23.788Z,21.47
2023-04-21T05:37:23.699Z,21.47
2023-04-21T05:38:23.734Z,21.49
2023-04-21T05:39:22.829Z,21.55
2023-04-21T05:40:23.838Z,21.47
2023-04-21T05:41:23.945Z,21.41
2023-04-21T05:42:23.948Z,21.33
2023-04-21T05:43:23.964Z,21.38
2023-04-21T05:44:23.995Z,21.55
2023-04-21T05:45:24.080Z,21.63
2023-04-21T05:46:23.242Z,21.74
2023-04-21T05:47:23.134Z,21.68
2023-04-21T05:48:24.066Z,21.82
2023-04-21T05:49:24.077Z,21.96
2023-04-21T05:50:24.150Z,21.88
2023-04-21T05:51:23.499Z,21.89
2023-04-21T05:52:23.542Z,22.04
2023-04-21T05:53:24.514Z,22.14
2023-04-21T05:54:24.340Z,22.21
2023-04-21T05:55:23.661Z,22.30
2023-04-21T05:56:23.427Z,22.39
2023-04-21T05:57:24.436Z,22.42
2023-04-21T05:58:23.487Z,22.35
2023-04-21T05:59:23.468Z,22.33
2023-04-21T06:00:23.450Z,22.35
2023-04-21T06:01:24.590Z,22.40
2023-04-21T06:02:23.766Z,22.53
2023-04-21T06:03:24.911Z,22.75
2023-04-21T06:04:24.796Z,22.83
2023-04-21T06:05:24.638Z,22.81
2023-04-21T06:06:24.544Z,22.84
2023-04-21T06:07:24.598Z,23.02
2023-04-21T06:08:23.619Z,22.96
2023-04-21T06:09:24.659Z,23.08
2023-04-21T06:10:24.684Z,23.06
2023-04-21T06:11:23.716Z,23.16
2023-04-21T06:12:24.747Z,23.23
2023-04-21T06:13:24.771Z,23.23
2023-04-21T06:14:24.776Z,23.27
2023-04-21T06:15:24.838Z,23.38
2023-04-21T06:16:24.868Z,23.44
2023-04-21T06:17:23.888Z,23.37
2023-04-21T06:18:25.097Z,23.36
2023-04-21T06:19:23.803Z,23.33
2023-04-21T06:20:24.862Z,23.35
2023-04-21T06:21:24.817Z,23.38
2023-04-21T06:22:24.840Z,23.39
2023-04-21T06:23:23.825Z,23.47
2023-04-21T06:24:23.870Z,23.56
2023-04-21T06:25:24.917Z,23.61
2023-04-21T06:26:23.939Z,23.68
2023-04-21T06:27:24.227Z,23.83
2023-04-21T06:28:25.056Z,23.70
2023-04-21T06:29:24.568Z,23.65
2023-04-21T06:30:25.397Z,23.74
2023-04-21T06:31:25.296Z,23.69
2023-04-21T06:32:24.256Z,23.75
2023-04-21T06:33:25.372Z,23.81
2023-04-21T06:34:24.438Z,23.86
2023-04-21T06:35:25.480Z,23.95
2023-04-21T06:36:24.469Z,23.93
2023-04-21T06:37:24.442Z,23.90
2023-04-21T06:38:24.527Z,23.92
2023-04-21T06:39:24.622Z,23.95
2023-04-21T06:40:24.591Z,24.00
2023-04-21T06:41:24.946Z,23.99
2023-04-21T06:42:25.657Z,23.97
2023-04-21T06:43:24.639Z,23.93
2023-04-21T06:44:25.680Z,23.99
2023-04-21T06:45:25.710Z,24.04
2023-04-21T06:46:24.789Z,24.10
2023-04-21T06:47:26.069Z,24.18
2023-04-21T06:48:24.894Z,24.29
2023-04-21T06:49:25.838Z,24.43
2023-04-21T06:50:25.915Z,24.42
2023-04-21T06:51:25.967Z,24.28
2023-04-21T06:52:24.876Z,24.28
2023-04-21T06:53:26.089Z,24.29
2023-04-21T06:54:24.997Z,24.29
2023-04-21T06:55:26.017Z,24.24
2023-04-21T06:56:25.568Z,24.18
2023-04-21T06:57:26.188Z,24.07
2023-04-21T06:58:26.158Z,24.00
2023-04-21T06:59:26.258Z,23.94
2023-04-21T07:00:25.306Z,23.90
2023-04-21T07:01:26.432Z,23.86
2023-04-21T07:02:26.478Z,23.81
2023-04-21T07:03:26.519Z,23.78
2023-04-21T07:04:26.567Z,23.74
2023-04-21T07:05:25.550Z,23.72
2023-04-21T07:06:25.598Z,23.71
2023-04-21T07:07:26.618Z,23.69
2023-04-21T07:08:25.901Z,23.67
2023-04-21T07:09:26.703Z,23.65
2023-04-21T07:10:26.917Z,23.65
2023-04-21T07:11:25.731Z,23.64
2023-04-21T07:12:25.750Z,23.62
2023-04-21T07:13:25.759Z,23.62
2023-04-21T07:14:25.767Z,23.61
2023-04-21T07:15:26.791Z,23.60
2023-04-21T07:16:26.817Z,23.59
2023-04-21T07:17:26.813Z,23.59
2023-04-21T07:18:26.806Z,23.59
2023-04-21T07:19:26.810Z,23.58
2023-04-21T07:20:26.971Z,23.58
2023-04-21T07:21:26.781Z,23.58
2023-04-21T07:22:25.772Z,23.58
2023-04-21T07:23:25.776Z,23.58
2023-04-21T07:24:25.784Z,23.59
2023-04-21T07:25:25.814Z,23.59
2023-04-21T07:26:26.810Z,23.58
2023-04-21T07:27:26.810Z,23.58
2023-04-21T07:28:25.801Z,23.59
2023-04-21T07:29:26.819Z,23.59
2023-04-21T07:30:26.916Z,23.59
2023-04-21T07:31:26.883Z,23.61
2023-04-21T07:32:26.927Z,23.61
2023-04-21T07:33:26.812Z,23.63
2023-04-21T07:34:25.900Z,23.64
2023-04-21T07:35:26.924Z,23.66
2023-04-21T07:36:25.923Z,23.66
2023-04-21T07:37:26.930Z,23.68
2023-04-21T07:38:26.946Z,23.69
2023-04-21T07:39:27.004Z,23.71
2023-04-21T07:40:27.111Z,23.72
2023-04-21T07:41:27.111Z,23.73
2023-04-21T07:42:27.299Z,23.74
2023-04-21T07:43:27.208Z,23.76
2023-04-21T07:44:27.338Z,23.77
2023-04-21T07:45:26.342Z,23.79
2023-04-21T07:46:27.468Z,23.80
2023-04-21T07:47:27.501Z,23.95
2023-04-21T07:48:27.543Z,23.94
2023-04-21T07:49:26.579Z,23.91
2023-04-21T07:50:26.708Z,23.90
2023-04-21T07:51:27.120Z,23.87
2023-04-21T07:52:27.559Z,23.79
2023-04-21T07:53:27.584Z,23.90
2023-04-21T07:54:27.651Z,24.01
2023-04-21T07:55:27.614Z,24.12
2023-04-21T07:56:27.656Z,24.08
2023-04-21T07:57:27.661Z,24.18
2023-04-21T07:58:26.670Z,24.09
2023-04-21T07:59:27.700Z,23.99
2023-04-21T08:00:27.750Z,24.06
2023-04-21T08:01:26.811Z,24.04
2023-04-21T08:02:26.881Z,24.18
2023-04-21T08:03:27.094Z,24.05
2023-04-21T08:04:26.932Z,23.97
2023-04-21T08:05:31.345Z,24.07
2023-04-21T08:06:28.100Z,24.11
2023-04-21T08:07:27.937Z,24.17
2023-04-21T08:08:28.784Z,24.24
2023-04-21T08:09:26.936Z,24.16
2023-04-21T08:10:27.880Z,24.23
2023-04-21T08:11:27.161Z,24.23
2023-04-21T08:12:26.860Z,24.18
2023-04-21T08:13:27.947Z,24.18
2023-04-21T08:14:27.004Z,24.16
2023-04-21T08:15:26.848Z,24.12
2023-04-21T08:16:26.877Z,24.18
2023-04-21T08:17:28.128Z,24.20
2023-04-21T08:18:26.872Z,24.19
2023-04-21T08:19:26.822Z,24.24
2023-04-21T08:20:27.826Z,24.12
2023-04-21T08:21:29.465Z,24.13
2023-04-21T08:22:26.870Z,24.07
2023-04-21T08:23:27.851Z,23.97
2023-04-21T08:24:27.801Z,23.93
2023-04-21T08:25:27.762Z,23.97
2023-04-21T08:26:26.877Z,23.93
2023-04-21T08:27:27.775Z,23.89
2023-04-21T08:28:27.755Z,23.89
2023-04-21T08:29:26.768Z,23.95
2023-04-21T08:30:27.822Z,23.96
2023-04-21T08:31:27.845Z,24.00
2023-04-21T08:32:26.818Z,24.00
2023-04-21T08:33:26.753Z,24.06
2023-04-21T08:34:28.001Z,24.04
2023-04-21T08:35:26.724Z,24.04
2023-04-21T08:36:29.868Z,24.01
2023-04-21T08:37:27.721Z,24.00
2023-04-21T08:38:26.715Z,24.03
2023-04-21T08:39:27.687Z,24.04
2023-04-21T08:40:27.699Z,23.99
2023-04-21T08:41:27.669Z,24.02
2023-04-21T08:42:27.130Z,23.98
2023-04-21T08:43:26.671Z,24.07
2023-04-21T08:44:27.651Z,24.02
2023-04-21T08:45:27.859Z,24.14
2023-04-21T08:46:27.798Z,24.05
2023-04-21T08:47:27.716Z,23.85
2023-04-21T08:48:26.628Z,23.54
2023-04-21T08:49:26.655Z,23.23
2023-04-21T08:50:27.620Z,22.90
2023-04-21T08:51:26.610Z,22.67
2023-04-21T08:52:26.626Z,22.51
2023-04-21T08:53:26.723Z,22.43
2023-04-21T08:54:29.881Z,22.46
2023-04-21T08:55:27.604Z,22.42
2023-04-21T08:56:27.599Z,22.44
2023-04-21T08:57:27.649Z,22.45
2023-04-21T08:58:27.571Z,22.39
2023-04-21T08:59:27.588Z,22.39
2023-04-21T09:00:26.645Z,22.35
2023-04-21T09:01:26.616Z,22.38
2023-04-21T09:02:26.658Z,22.44
2023-04-21T09:03:26.752Z,22.40
2023-04-21T09:04:28.884Z,22.38
2023-04-21T09:05:27.796Z,22.33
2023-04-21T09:06:27.701Z,22.36
2023-04-21T09:07:27.753Z,22.24
2023-04-21T09:08:26.830Z,22.18
2023-04-21T09:09:26.884Z,22.23
2023-04-21T09:10:27.968Z,22.37
2023-04-21T09:11:27.997Z,22.32
2023-04-21T09:12:28.083Z,22.30
2023-04-21T09:13:28.138Z,22.21
2023-04-21T09:14:28.191Z,22.08
2023-04-21T09:15:28.234Z,22.00
2023-04-21T09:16:28.324Z,21.95
2023-04-21T09:17:28.357Z,21.88
2023-04-21T09:18:28.345Z,21.87
2023-04-21T09:19:28.314Z,21.81
2023-04-21T09:20:28.333Z,21.75
2023-04-21T09:21:30.062Z,21.69
2023-04-21T09:22:27.342Z,21.65
2023-04-21T09:23:28.387Z,21.68
2023-04-21T09:24:28.312Z,21.60
2023-04-21T09:25:28.318Z,21.59
2023-04-21T09:26:28.311Z,21.56
2023-04-21T09:27:28.290Z,21.52
2023-04-21T09:28:28.281Z,21.48
2023-04-21T09:29:28.314Z,21.52
2023-04-21T09:30:28.256Z,21.57
2023-04-21T09:31:28.345Z,21.65
2023-04-21T09:32:28.326Z,21.56
2023-04-21T09:33:30.943Z,21.57
2023-04-21T09:34:28.289Z,21.53
2023-04-21T09:35:28.242Z,21.53
2023-04-21T09:36:28.257Z,21.46
2023-04-21T09:37:28.235Z,21.50
2023-04-21T09:38:28.216Z,21.51
2023-04-21T09:39:42.654Z,21.52
2023-04-21T09:40:28.199Z,21.52
2023-04-21T09:41:28.185Z,21.55
2023-04-21T09:42:28.257Z,21.57
2023-04-21T09:43:28.216Z,21.58
2023-04-21T09:44:28.257Z,21.58
2023-04-21T09:45:36.961Z,21.63
2023-04-21T09:46:28.370Z,21.67
2023-04-21T09:47:28.675Z,21.79
2023-04-21T09:48:28.152Z,21.83
2023-04-21T09:49:28.166Z,21.83
2023-04-21T09:51:01.794Z,21.98
2023-04-21T09:51:37.282Z,21.98
2023-04-21T09:52:28.101Z,21.99
2023-04-21T09:53:28.185Z,21.99
2023-04-21T09:54:29.986Z,22.02
2023-04-21T09:55:28.087Z,22.08
2023-04-21T09:56:28.082Z,21.97
2023-04-21T09:57:28.073Z,21.92
2023-04-21T09:58:27.066Z,21.84
2023-04-21T09:59:28.080Z,21.89
2023-04-21T10:00:28.055Z,21.98
2023-04-21T10:01:27.075Z,22.05
2023-04-21T10:02:28.237Z,22.13
2023-04-21T10:03:28.187Z,22.25
2023-04-21T10:04:27.758Z,22.32
2023-04-21T10:05:27.080Z,22.38
2023-04-21T10:06:28.041Z,22.37
2023-04-21T10:07:28.046Z,22.22
2023-04-21T10:08:28.006Z,22.14
2023-04-21T10:09:27.015Z,22.23
2023-04-21T10:10:27.015Z,22.18
2023-04-21T10:11:27.001Z,22.22
2023-04-21T10:12:26.964Z,22.30
2023-04-21T10:13:27.956Z,22.34
2023-04-21T10:14:27.959Z,22.41
2023-04-21T10:15:27.989Z,22.43
2023-04-21T10:16:28.028Z,22.62
2023-04-21T10:17:27.121Z,22.54
2023-04-21T10:18:26.916Z,22.45
2023-04-21T10:19:27.981Z,22.39
2023-04-21T10:20:27.926Z,22.37
2023-04-21T10:21:27.919Z,22.33
2023-04-21T10:22:26.913Z,22.28
2023-04-21T10:23:27.918Z,22.29
2023-04-21T10:24:27.858Z,22.42
2023-04-21T10:25:28.086Z,22.42
2023-04-21T10:26:27.867Z,22.29
2023-04-21T10:27:27.890Z,22.22
2023-04-21T10:28:27.881Z,22.20
2023-04-21T10:29:26.959Z,22.29
2023-04-21T10:30:28.000Z,22.30
2023-04-21T10:31:28.038Z,22.34
2023-04-21T10:32:28.152Z,22.34
2023-04-21T10:33:27.098Z,22.48
2023-04-21T10:34:27.138Z,22.59
2023-04-21T10:35:28.234Z,22.68
2023-04-21T10:36:27.184Z,22.60
2023-04-21T10:37:28.264Z,22.60
2023-04-21T10:38:27.223Z,22.52
2023-04-21T10:39:28.192Z,22.45
2023-04-21T10:40:42.560Z,22.41
2023-04-21T10:41:28.228Z,22.45
2023-04-21T10:42:28.188Z,22.43
2023-04-21T10:43:28.751Z,22.36
2023-04-21T10:44:27.301Z,22.50
2023-04-21T10:45:28.591Z,22.73
2023-04-21T10:46:28.261Z,22.94
2023-04-21T10:47:27.368Z,23.13
2023-04-21T10:48:27.196Z,23.32
2023-04-21T10:49:27.193Z,23.44
2023-04-21T10:50:28.218Z,23.54
2023-04-21T10:51:28.134Z,23.58
2023-04-21T10:52:28.128Z,23.70
2023-04-21T10:53:27.191Z,23.80
2023-04-21T10:54:27.168Z,23.89
2023-04-21T10:55:28.088Z,23.85
2023-04-21T10:56:27.072Z,24.00
2023-04-21T10:57:28.077Z,23.96
2023-04-21T10:58:27.114Z,24.00
2023-04-21T10:59:27.400Z,24.11
2023-04-21T11:00:28.155Z,24.23
2023-04-21T11:01:27.151Z,24.16
2023-04-21T11:02:28.201Z,24.20
2023-04-21T11:03:28.262Z,24.28
2023-04-21T11:04:28.705Z,24.26
2023-04-21T11:05:28.113Z,24.25
2023-04-21T11:06:28.110Z,24.27
2023-04-21T11:07:27.135Z,24.32
2023-04-21T11:08:28.349Z,24.41
2023-04-21T11:09:28.252Z,24.47
2023-04-21T11:10:27.266Z,24.63
2023-04-21T11:11:28.341Z,24.74
2023-04-21T11:12:27.464Z,24.76
2023-04-21T11:13:28.395Z,24.86
2023-04-21T11:14:27.484Z,24.84
2023-04-21T11:15:27.506Z,24.92
2023-04-21T11:16:28.549Z,24.96
2023-04-21T11:17:27.721Z,25.02
2023-04-21T11:18:28.646Z,25.04
2023-04-21T11:19:27.650Z,25.04
2023-04-21T11:20:27.697Z,24.99
2023-04-21T11:21:28.727Z,24.87
2023-04-21T11:22:28.753Z,24.90
2023-04-21T11:23:28.353Z,24.86
2023-04-21T11:24:27.921Z,24.79
2023-04-21T11:25:28.962Z,24.85
2023-04-21T11:26:28.927Z,24.98
2023-04-21T11:27:28.967Z,25.03
2023-04-21T11:28:27.967Z,24.96
2023-04-21T11:29:27.940Z,24.97
2023-04-21T11:30:27.999Z,25.18
2023-04-21T11:31:29.189Z,25.25
2023-04-21T11:32:29.351Z,25.22
2023-04-21T11:33:28.120Z,25.22
2023-04-21T11:34:28.386Z,25.20
2023-04-21T11:35:28.190Z,25.14
2023-04-21T11:36:29.204Z,25.10
2023-04-21T11:37:29.256Z,25.11
2023-04-21T11:38:29.672Z,25.07
2023-04-21T11:39:29.297Z,25.04
2023-04-21T11:40:29.313Z,25.23
2023-04-21T11:41:28.416Z,25.33
2023-04-21T11:42:28.386Z,25.18
2023-04-21T11:43:29.410Z,25.15
2023-04-21T11:44:28.391Z,25.07
2023-04-21T11:45:29.421Z,25.00
2023-04-21T11:46:29.480Z,24.97
2023-04-21T11:47:29.507Z,24.93
2023-04-21T11:48:28.517Z,24.89
2023-04-21T11:49:28.533Z,24.88
2023-04-21T11:50:28.539Z,24.86
2023-04-21T11:51:28.561Z,24.86
2023-04-21T11:52:29.658Z,24.86
2023-04-21T11:53:29.624Z,24.87
2023-04-21T11:54:28.663Z,24.87
2023-04-21T11:55:29.668Z,24.93
2023-04-21T11:56:29.691Z,24.93
2023-04-21T11:57:29.701Z,24.92
2023-04-21T11:58:29.725Z,24.91
2023-04-21T11:59:28.718Z,24.94
2023-04-21T12:00:28.789Z,24.93
2023-04-21T12:01:29.750Z,24.93
2023-04-21T12:02:28.904Z,24.94
2023-04-21T12:03:29.879Z,24.96
2023-04-21T12:04:29.891Z,24.96
2023-04-21T12:05:28.785Z,24.97
2023-04-21T12:06:29.788Z,24.98
2023-04-21T12:07:28.788Z,24.98
2023-04-21T12:08:28.774Z,24.99
2023-04-21T12:09:28.770Z,25.02
2023-04-21T12:10:28.765Z,25.07
2023-04-21T12:11:29.767Z,25.07
2023-04-21T12:12:28.758Z,25.08
2023-04-21T12:13:28.862Z,25.11
2023-04-21T12:14:28.780Z,25.14
2023-04-21T12:15:28.776Z,25.13
2023-04-21T12:16:29.875Z,25.14
2023-04-21T12:17:28.856Z,25.20
2023-04-21T12:18:29.893Z,25.18
2023-04-21T12:19:29.964Z,25.19
2023-04-21T12:20:30.388Z,25.22
2023-04-21T12:21:29.140Z,25.25
2023-04-21T12:22:30.153Z,25.27
2023-04-21T12:23:29.241Z,25.25
2023-04-21T12:24:29.279Z,25.24
2023-04-21T12:25:29.382Z,25.24
2023-04-21T12:26:29.399Z,25.23
2023-04-21T12:27:30.464Z,25.28
2023-04-21T12:28:30.560Z,25.30
2023-04-21T12:29:30.620Z,25.33
2023-04-21T12:30:30.780Z,25.33
2023-04-21T12:31:30.758Z,25.34
2023-04-21T12:32:29.771Z,25.35
2023-04-21T12:33:30.882Z,25.35
2023-04-21T12:34:29.908Z,25.39
2023-04-21T12:35:30.920Z,25.41
2023-04-21T12:36:30.065Z,25.45
2023-04-21T12:37:31.089Z,25.44
2023-04-21T12:38:30.204Z,25.48
2023-04-21T12:39:31.597Z,25.48
2023-04-21T12:40:31.162Z,25.50
2023-04-21T12:41:30.223Z,25.52
2023-04-21T12:42:31.257Z,25.47
2023-04-21T12:43:31.312Z,25.48
2023-04-21T12:44:30.368Z,25.50
2023-04-21T12:45:31.478Z,25.53
2023-04-21T12:46:30.489Z,25.53
2023-04-21T12:47:30.527Z,25.52
2023-04-21T12:48:30.598Z,25.54
2023-04-21T12:49:31.818Z,25.58
2023-04-21T12:50:31.693Z,25.59
2023-04-21T12:51:31.711Z,25.68
2023-04-21T12:52:31.758Z,25.83
2023-04-21T12:53:31.401Z,25.94
2023-04-21T12:54:31.801Z,25.72
2023-04-21T12:55:30.828Z,25.66
2023-04-21T12:56:30.896Z,25.67
2023-04-21T12:57:31.904Z,25.66
2023-04-21T12:58:31.962Z,25.63
2023-04-21T12:59:31.239Z,25.65
2023-04-21T13:00:32.060Z,25.76
2023-04-21T13:01:32.134Z,25.77
2023-04-21T13:02:31.272Z,25.71
2023-04-21T13:03:32.361Z,25.68
2023-04-21T13:04:32.653Z,25.66
2023-04-21T13:05:32.239Z,25.60
2023-04-21T13:06:31.203Z,25.60
2023-04-21T13:07:32.235Z,25.60
2023-04-21T13:08:31.255Z,25.62
2023-04-21T13:09:32.522Z,25.61
2023-04-21T13:10:31.251Z,25.64
2023-04-21T13:11:31.250Z,25.63
2023-04-21T13:12:31.268Z,25.62
2023-04-21T13:13:32.252Z,25.58
2023-04-21T13:14:32.273Z,25.59
2023-04-21T13:15:32.225Z,25.59
2023-04-21T13:16:32.354Z,25.58
2023-04-21T13:17:32.317Z,25.62
2023-04-21T13:18:31.340Z,25.63
2023-04-21T13:19:32.795Z,25.64
2023-04-21T13:20:32.448Z,25.65
2023-04-21T13:21:32.527Z,25.66
2023-04-21T13:22:31.576Z,25.67
2023-04-21T13:23:32.649Z,25.68
2023-04-21T13:24:32.749Z,25.68
2023-04-21T13:25:32.758Z,25.70
2023-04-21T13:26:32.779Z,25.72
2023-04-21T13:27:32.917Z,25.72
2023-04-21T13:28:31.951Z,25.76
2023-04-21T13:29:33.272Z,25.77
2023-04-21T13:30:32.987Z,25.83
2023-04-21T13:31:32.168Z,25.81
2023-04-21T13:32:33.186Z,25.82
2023-04-21T13:33:32.178Z,25.81
2023-04-21T13:34:32.470Z,25.80
2023-04-21T13:35:33.233Z,25.78
2023-04-21T13:36:33.275Z,25.75
2023-04-21T13:37:32.341Z,25.76
2023-04-21T13:38:32.701Z,25.78
2023-04-21T13:39:32.757Z,25.74
2023-04-21T13:40:33.464Z,25.70
2023-04-21T13:41:33.527Z,25.77
2023-04-21T13:42:33.478Z,25.93
2023-04-21T13:43:32.480Z,26.14
2023-04-21T13:44:32.493Z,26.35
2023-04-21T13:45:32.519Z,26.43
2023-04-21T13:46:32.571Z,26.49
2023-04-21T13:47:33.577Z,26.51
2023-04-21T13:48:33.831Z,26.48
2023-04-21T13:49:33.887Z,26.51
2023-04-21T13:50:32.524Z,26.53
2023-04-21T13:51:32.525Z,26.54
2023-04-21T13:52:32.572Z,26.56
2023-04-21T13:53:33.047Z,26.61
2023-04-21T13:54:32.829Z,26.66
2023-04-21T13:55:32.619Z,26.58
2023-04-21T13:56:32.670Z,26.51
2023-04-21T13:57:33.692Z,26.44
2023-04-21T13:58:32.748Z,26.43
2023-04-21T13:59:33.999Z,26.42
2023-04-21T14:00:32.770Z,26.45
2023-04-21T14:01:32.888Z,26.29
2023-04-21T14:02:33.168Z,26.20
2023-04-21T14:03:34.048Z,26.18
2023-04-21T14:04:34.188Z,26.19
2023-04-21T14:05:34.417Z,26.25
2023-04-21T14:06:33.087Z,26.33
2023-04-21T14:07:33.259Z,26.40
2023-04-21T14:08:34.184Z,26.47
2023-04-21T14:09:33.531Z,26.50
2023-04-21T14:10:33.323Z,26.52
2023-04-21T14:11:34.335Z,26.48
2023-04-21T14:12:34.369Z,26.41
2023-04-21T14:13:39.823Z,26.40
2023-04-21T14:15:33.484Z,26.17
2023-04-21T14:16:33.477Z,26.18
2023-04-21T14:17:34.419Z,26.25
2023-04-21T14:18:34.450Z,26.25
2023-04-21T14:19:34.773Z,26.20
2023-04-21T14:20:33.423Z,26.23
2023-04-21T14:21:34.389Z,26.23
2023-04-21T14:22:33.359Z,26.15
2023-04-21T14:23:33.390Z,26.08
2023-04-21T14:24:34.377Z,25.98
2023-04-21T14:25:34.368Z,25.91
2023-04-21T14:26:34.313Z,25.85
2023-04-21T14:27:34.419Z,25.85
2023-04-21T14:28:33.343Z,25.91
2023-04-21T14:29:34.575Z,25.99
2023-04-21T14:30:34.385Z,25.95
2023-04-21T14:31:34.307Z,25.97
2023-04-21T14:32:33.801Z,25.96
2023-04-21T14:33:34.323Z,25.90
2023-04-21T14:34:34.290Z,25.83
2023-04-21T14:35:34.281Z,25.76
2023-04-21T14:36:34.356Z,25.70
2023-04-21T14:37:33.340Z,25.65
2023-04-21T14:38:34.542Z,25.64
2023-04-21T14:39:33.551Z,25.69
2023-04-21T14:40:33.494Z,25.67
2023-04-21T14:41:33.448Z,25.65
2023-04-21T14:42:33.438Z,25.61
2023-04-21T14:43:34.466Z,25.58
2023-04-21T14:44:34.481Z,25.58
2023-04-21T14:45:34.481Z,25.56
2023-04-21T14:46:33.639Z,25.62
2023-04-21T14:47:33.611Z,25.65
2023-04-21T14:48:34.622Z,25.80
2023-04-21T14:49:34.903Z,25.71
2023-04-21T14:50:33.733Z,25.59
2023-04-21T14:51:34.800Z,25.55
2023-04-21T14:52:34.768Z,25.50
2023-04-21T14:53:34.851Z,25.46
2023-04-21T14:54:33.768Z,25.45
2023-04-21T14:55:34.808Z,25.46
2023-04-21T14:56:34.819Z,25.44
2023-04-21T14:57:33.804Z,25.48
2023-04-21T14:58:33.881Z,25.56
2023-04-21T14:59:34.042Z,25.58
2023-04-21T15:00:35.015Z,25.56
2023-04-21T15:01:35.037Z,25.63
2023-04-21T15:02:35.046Z,25.76
2023-04-21T15:03:34.080Z,25.73
2023-04-21T15:04:34.216Z,25.77
2023-04-21T15:05:35.092Z,25.72
2023-04-21T15:06:34.079Z,25.69
2023-04-21T15:07:35.115Z,25.65
2023-04-21T15:08:35.116Z,25.61
2023-04-21T15:09:34.242Z,25.57
2023-04-21T15:10:34.092Z,25.62
2023-04-21T15:11:34.083Z,25.74
2023-04-21T15:12:36.374Z,25.76
2023-04-21T15:13:35.160Z,25.77
2023-04-21T15:14:34.235Z,25.78
2023-04-21T15:15:35.248Z,25.79
2023-04-21T15:16:35.362Z,25.76
2023-04-21T15:17:34.427Z,25.76
2023-04-21T15:18:34.450Z,25.84
2023-04-21T15:19:35.740Z,25.83
2023-04-21T15:20:44.472Z,25.87
2023-04-21T15:21:35.521Z,25.85
2023-04-21T15:22:35.533Z,25.86
2023-04-21T15:23:34.559Z,25.87
2023-04-21T15:24:34.616Z,25.97
2023-04-21T15:25:34.506Z,26.03
2023-04-21T15:26:35.524Z,26.00
2023-04-21T15:27:34.513Z,26.00
2023-04-21T15:28:35.509Z,25.99
2023-04-21T15:29:34.672Z,26.01
2023-04-21T16:03:59.763Z,25.70
2023-04-21T16:05:00.758Z,25.97
2023-04-21T16:06:00.798Z,26.04
2023-04-21T16:06:59.615Z,26.11
2023-04-21T16:07:59.617Z,26.15
2023-04-21T16:08:59.695Z,26.20
2023-04-21T16:09:59.668Z,26.23
2023-04-21T16:11:00.913Z,26.28
2023-04-21T16:11:59.718Z,26.27
2023-04-21T16:12:59.766Z,26.26
2023-04-21T16:14:00.864Z,26.28
2023-04-21T16:15:09.297Z,26.31
2023-04-21T16:16:00.882Z,26.39
2023-04-21T16:16:59.843Z,26.39
2023-04-21T16:18:00.852Z,26.38
2023-04-21T16:18:59.763Z,26.33
2023-04-21T16:20:01.019Z,26.30
2023-04-21T16:21:00.778Z,26.28
2023-04-21T16:22:00.746Z,26.27
2023-04-21T16:22:59.728Z,26.27
2023-04-21T16:23:59.758Z,26.34
2023-04-21T16:25:00.909Z,26.28
2023-04-21T16:26:00.753Z,26.24
2023-04-21T16:26:59.704Z,26.32
2023-04-21T16:28:00.727Z,26.34
2023-04-21T16:29:00.670Z,26.32
2023-04-21T16:30:00.701Z,26.35
2023-04-21T16:31:00.655Z,26.34
2023-04-21T16:31:59.718Z,26.34
2023-04-21T16:33:00.651Z,26.41
2023-04-21T16:34:00.789Z,26.46
2023-04-21T16:35:00.713Z,26.54
2023-04-21T16:36:00.680Z,26.49
2023-04-21T16:37:00.664Z,26.44
2023-04-21T16:37:59.607Z,26.43
2023-04-21T16:39:00.594Z,26.50
2023-04-21T16:40:00.688Z,26.50
2023-04-21T16:40:59.639Z,26.45
2023-04-21T16:42:00.585Z,26.44
2023-04-21T16:42:59.578Z,26.47
2023-04-21T16:43:59.624Z,26.41
2023-04-21T16:45:00.595Z,26.45
2023-04-21T16:46:00.600Z,26.46
2023-04-21T16:46:59.594Z,26.43
2023-04-21T16:48:00.723Z,26.44
2023-04-21T16:48:59.623Z,26.50
2023-04-21T16:49:59.519Z,26.47
2023-04-21T16:50:59.549Z,26.62
2023-04-21T16:52:00.547Z,26.61
2023-04-21T16:53:00.535Z,26.58
2023-04-21T16:54:00.511Z,26.50
2023-04-21T16:55:00.491Z,26.44
2023-04-21T16:55:59.508Z,26.44
2023-04-21T16:57:00.482Z,26.41
2023-04-21T16:57:59.465Z,26.42
2023-04-21T16:59:00.448Z,26.45
2023-04-21T16:59:59.450Z,26.46
2023-04-21T17:00:59.586Z,26.48
2023-04-21T17:01:59.540Z,26.50
2023-04-21T17:03:00.708Z,26.48
2023-04-21T17:04:00.766Z,26.59
2023-04-21T17:04:59.620Z,26.53
2023-04-21T17:05:59.679Z,26.48
2023-04-21T17:07:00.690Z,26.46
2023-04-21T17:07:59.971Z,26.45
2023-04-21T17:09:00.775Z,26.43
2023-04-21T17:09:59.784Z,26.42
2023-04-21T17:11:01.035Z,26.55
2023-04-21T17:12:00.830Z,26.75
2023-04-21T17:12:59.838Z,27.12
2023-04-21T17:13:59.865Z,27.54
2023-04-21T17:15:00.880Z,27.93
2023-04-21T17:16:01.044Z,28.14
2023-04-21T17:17:01.096Z,28.01
2023-04-21T17:18:00.126Z,27.67
2023-04-21T17:19:01.108Z,27.35
2023-04-21T17:20:00.168Z,27.12
2023-04-21T17:21:00.146Z,27.02
2023-04-21T17:22:01.128Z,26.92
2023-04-21T17:23:00.156Z,26.88
2023-04-21T17:24:01.187Z,26.87
2023-04-21T17:25:00.359Z,26.77
2023-04-21T17:26:01.226Z,26.72
2023-04-21T17:27:01.228Z,26.66
2023-04-21T17:28:00.253Z,26.65
2023-04-21T17:29:00.296Z,26.54
2023-04-21T17:30:00.354Z,26.51
2023-04-21T17:31:14.334Z,26.46
2023-04-21T17:32:01.391Z,26.41
2023-04-21T17:33:15.560Z,26.42
2023-04-21T17:34:01.349Z,26.36
2023-04-21T17:35:01.368Z,26.31
2023-04-21T17:36:03.356Z,26.39
2023-04-21T17:37:00.321Z,26.34
2023-04-21T17:38:01.316Z,26.28
2023-04-21T17:39:01.308Z,26.23
2023-04-21T17:40:02.436Z,26.20
2023-04-21T17:41:00.325Z,26.17
2023-04-21T17:42:00.307Z,26.14
2023-04-21T17:43:01.293Z,26.15
2023-04-21T17:44:01.282Z,26.16
2023-04-21T17:45:00.281Z,26.12
2023-04-21T17:46:01.305Z,26.09
2023-04-21T17:47:00.248Z,26.07
2023-04-21T17:48:00.340Z,26.06
2023-04-21T17:49:00.244Z,26.03
2023-04-21T17:50:00.323Z,26.04
2023-04-21T17:51:01.227Z,26.02
2023-04-21T17:52:00.214Z,26.02
2023-04-21T17:53:01.198Z,26.02
2023-04-21T17:54:01.222Z,25.99
2023-04-21T17:55:00.206Z,25.98
2023-04-21T17:56:00.251Z,25.94
2023-04-21T17:57:01.189Z,25.92
2023-04-21T17:58:00.191Z,25.89
2023-04-21T17:59:01.172Z,25.88
2023-04-21T18:00:01.164Z,25.86
2023-04-21T18:01:01.161Z,25.86
2023-04-21T18:02:01.316Z,25.84
2023-04-21T18:03:01.235Z,25.83
2023-04-21T18:04:01.590Z,25.83
2023-04-21T18:05:01.171Z,25.81
2023-04-21T18:06:01.138Z,25.80
2023-04-21T18:07:01.121Z,25.81
2023-04-21T18:08:01.098Z,25.81
2023-04-21T18:09:01.101Z,25.80
2023-04-21T18:10:01.082Z,25.80
2023-04-21T18:11:01.117Z,25.79
2023-04-21T18:12:00.152Z,25.77
2023-04-21T18:13:01.123Z,25.74
2023-04-21T18:14:01.052Z,25.73
2023-04-21T18:15:01.046Z,25.72
2023-04-21T18:16:01.078Z,25.72
2023-04-21T18:17:01.049Z,25.73
2023-04-21T18:18:00.144Z,25.77
2023-04-21T18:19:01.015Z,25.73
2023-04-21T18:20:01.015Z,25.72
2023-04-21T18:21:01.035Z,25.74
2023-04-21T18:21:59.986Z,25.74
2023-04-21T18:22:59.990Z,25.73
2023-04-21T18:23:59.961Z,25.71
2023-04-21T18:25:00.995Z,25.74
2023-04-21T18:26:00.986Z,25.72
2023-04-21T18:27:00.965Z,25.70
2023-04-21T18:27:59.969Z,25.68
2023-04-21T18:28:59.971Z,25.66
2023-04-21T18:29:59.931Z,25.64